createdAt,value
2018-05-03T22:31:53.823Z,102005.75
2018-05-03T22:32:15.880Z,102005.99
2018-05-03T22:32:38.699Z,102005.73
2018-05-03T22:33:00.755Z,102007.81
2018-05-03T22:33:22.803Z,102009.98
2018-05-03T22:33:44.851Z,102005.90
2018-05-03T22:34:06.902Z,102009.59
2018-05-03T22:34:29.702Z,102009.73
2018-05-03T22:34:53.235Z,102009.73
2018-05-03T22:35:15.294Z,102014.81
2018-05-03T22:35:38.082Z,102008.43
2018-05-03T22:36:00.111Z,102009.77
2018-05-03T22:36:22.149Z,102013.08
2018-05-03T22:36:44.172Z,102017.85
2018-05-03T22:37:06.986Z,102019.16
2018-05-03T22:37:29.415Z,102014.77
2018-05-03T22:37:51.447Z,102018.92
2018-05-03T22:38:14.243Z,102012.22
2018-05-03T22:38:36.267Z,102017.45
2018-05-03T22:38:58.284Z,102014.38
2018-05-03T22:39:20.299Z,102010.75
2018-05-03T22:39:42.350Z,102016.45
2018-05-03T22:40:05.148Z,102012.60
2018-05-03T22:40:27.213Z,102005.36
2018-05-03T22:40:50.108Z,102009.28
2018-05-03T22:41:12.056Z,102013.44
2018-05-03T22:41:34.852Z,102016.13
2018-05-03T22:41:56.879Z,102015.32
2018-05-03T22:42:18.925Z,102013.94
2018-05-03T22:42:41.737Z,102019.52
2018-05-03T22:43:03.798Z,102019.82
2018-05-03T22:43:25.808Z,102016.55
2018-05-03T22:43:48.589Z,102015.59
2018-05-03T22:44:10.613Z,102019.33
2018-05-03T22:44:32.644Z,102018.67
2018-05-03T22:44:54.685Z,102022.33
2018-05-03T22:45:16.749Z,102021.52
2018-05-03T22:45:38.795Z,102021.05
2018-05-03T22:46:01.610Z,102015.88
2018-05-03T22:46:23.634Z,102011.11
2018-05-03T22:46:45.667Z,102016.97
2018-05-03T22:47:07.688Z,102012.87
2018-05-03T22:47:30.480Z,102017.19
2018-05-03T22:47:52.511Z,102020.43
2018-05-03T22:48:14.538Z,102017.65
2018-05-03T22:48:36.555Z,102015.42
2018-05-03T22:48:58.585Z,102021.20
2018-05-03T22:49:20.603Z,102017.50
2018-05-03T22:49:42.629Z,102018.66
2018-05-03T22:50:05.419Z,102019.88
2018-05-03T22:50:27.431Z,102019.50
2018-05-03T22:50:49.488Z,102019.81
2018-05-03T22:51:12.281Z,102020.27
2018-05-03T22:51:34.304Z,102016.42
2018-05-03T22:51:56.320Z,102020.11
2018-05-03T22:52:18.371Z,102014.33
2018-05-03T22:52:41.177Z,102020.33
2018-05-03T22:53:03.210Z,102021.56
2018-05-03T22:53:25.237Z,102013.79
2018-05-03T22:53:48.024Z,102019.02
2018-05-03T22:54:10.048Z,102017.06
2018-05-03T22:54:32.069Z,102009.78
2018-05-03T22:54:54.099Z,102015.75
2018-05-03T22:55:16.138Z,102015.86
2018-05-03T22:55:38.178Z,102020.33
2018-05-03T22:56:00.236Z,102011.94
2018-05-03T22:56:22.317Z,102013.25
2018-05-03T22:56:44.350Z,102009.94
2018-05-03T22:57:06.375Z,102012.18
2018-05-03T22:57:28.408Z,102013.41
2018-05-03T22:57:50.434Z,102012.09
2018-05-03T22:58:12.465Z,102014.56
2018-05-03T22:58:34.485Z,102018.86
2018-05-03T22:58:56.549Z,102015.59
2018-05-03T22:59:18.576Z,102020.52
2018-05-03T22:59:40.599Z,102015.67
2018-05-03T23:00:02.633Z,102020.52
2018-05-03T23:00:24.675Z,102018.67
2018-05-03T23:00:47.475Z,102020.28
2018-05-03T23:01:09.516Z,102019.36
2018-05-03T23:01:31.532Z,102017.97
2018-05-03T23:01:53.578Z,102020.50
2018-05-03T23:02:15.615Z,102017.50
2018-05-03T23:02:37.641Z,102017.05
2018-05-03T23:02:59.664Z,102015.81
2018-05-03T23:03:21.696Z,102015.27
2018-05-03T23:03:43.760Z,102022.82
2018-05-03T23:04:06.554Z,102018.73
2018-05-03T23:04:28.586Z,102016.12
2018-05-03T23:04:51.370Z,102023.42
2018-05-03T23:05:13.396Z,102027.35
2018-05-03T23:05:35.421Z,102020.11
2018-05-03T23:05:57.494Z,102022.34
2018-05-03T23:06:20.311Z,102023.11
2018-05-03T23:06:42.324Z,102020.48
2018-05-03T23:07:04.351Z,102023.48
2018-05-03T23:07:27.144Z,102020.95
2018-05-03T23:07:49.159Z,102024.80
2018-05-03T23:08:11.183Z,102021.17
2018-05-03T23:08:33.200Z,102022.02
2018-05-03T23:08:55.245Z,102019.33
2018-05-03T23:09:17.260Z,102015.32
2018-05-03T23:09:40.058Z,102016.89
2018-05-03T23:10:02.080Z,102023.36
2018-05-03T23:10:24.108Z,102016.81
2018-05-03T23:10:46.141Z,102019.73
2018-05-03T23:11:08.165Z,102019.44
2018-05-03T23:11:30.995Z,102018.50
2018-05-03T23:11:53.022Z,102022.81
2018-05-03T23:12:15.813Z,102020.96
2018-05-03T23:12:37.831Z,102027.89
2018-05-03T23:12:59.848Z,102027.50
2018-05-03T23:13:21.869Z,102023.96
2018-05-03T23:13:43.891Z,102027.97
2018-05-03T23:14:05.931Z,102031.42
2018-05-03T23:14:28.738Z,102030.04
2018-05-03T23:14:50.756Z,102028.65
2018-05-03T23:15:12.773Z,102026.80
2018-05-03T23:15:34.805Z,102027.18
2018-05-03T23:15:56.829Z,102021.95
2018-05-03T23:16:19.627Z,102022.80
2018-05-03T23:16:41.687Z,102025.03
2018-05-03T23:17:04.471Z,102025.03
2018-05-03T23:17:26.489Z,102024.87
2018-05-03T23:17:48.510Z,102027.48
2018-05-03T23:18:10.533Z,102028.71
2018-05-03T23:18:32.551Z,102023.17
2018-05-03T23:18:54.574Z,102028.33
2018-05-03T23:19:16.589Z,102030.87
2018-05-03T23:19:38.618Z,102025.72
2018-05-03T23:20:00.635Z,102029.17
2018-05-03T23:20:22.661Z,102031.79
2018-05-03T23:20:44.672Z,102033.56
2018-05-03T23:21:06.685Z,102028.33
2018-05-03T23:21:28.704Z,102030.02
2018-05-03T23:21:50.756Z,102027.78
2018-05-03T23:22:12.776Z,102026.86
2018-05-03T23:22:34.801Z,102023.48
2018-05-03T23:22:56.821Z,102023.86
2018-05-03T23:23:18.854Z,102022.86
2018-05-03T23:23:40.868Z,102027.16
2018-05-03T23:24:02.894Z,102027.70
2018-05-03T23:24:24.914Z,102031.62
2018-05-03T23:24:46.952Z,102025.39
2018-05-03T23:25:09.769Z,102027.08
2018-05-03T23:25:31.791Z,102028.85
2018-05-03T23:25:53.938Z,102033.63
2018-05-03T23:26:16.724Z,102033.51
2018-05-03T23:26:38.749Z,102030.08
2018-05-03T23:27:00.872Z,102036.62
2018-05-03T23:27:22.880Z,102037.81
2018-05-03T23:27:44.904Z,102034.81
2018-05-03T23:28:06.919Z,102031.66
2018-05-03T23:28:28.948Z,102031.27
2018-05-03T23:28:51.744Z,102032.34
2018-05-03T23:29:13.763Z,102029.80
2018-05-03T23:29:35.792Z,102027.95
2018-05-03T23:29:57.813Z,102024.48
2018-05-03T23:30:19.895Z,102030.11
2018-05-03T23:30:41.921Z,102030.19
2018-05-03T23:31:03.937Z,102027.95
2018-05-03T23:31:25.965Z,102026.48
2018-05-03T23:31:47.993Z,102028.17
2018-05-03T23:32:10.050Z,102030.33
2018-05-03T23:32:32.846Z,102032.17
2018-05-03T23:32:54.865Z,102029.02
2018-05-03T23:33:16.897Z,102027.79
2018-05-03T23:33:38.908Z,102028.63
2018-05-03T23:34:00.924Z,102024.33
2018-05-03T23:34:22.940Z,102026.86
2018-05-03T23:34:44.973Z,102030.33
2018-05-03T23:35:06.987Z,102028.09
2018-05-03T23:35:29.021Z,102019.48
2018-05-03T23:35:51.804Z,102019.02
2018-05-03T23:36:13.820Z,102017.24
2018-05-03T23:36:35.846Z,102021.01
2018-05-03T23:36:57.869Z,102021.55
2018-05-03T23:37:19.914Z,102021.47
2018-05-03T23:37:42.710Z,102018.39
2018-05-03T23:38:04.779Z,102024.93
2018-05-03T23:38:27.563Z,102018.70
2018-05-03T23:38:49.597Z,102020.47
2018-05-03T23:39:11.628Z,102023.92
2018-05-03T23:39:33.653Z,102020.00
2018-05-03T23:39:56.455Z,102021.77
2018-05-03T23:40:18.476Z,102022.23
2018-05-03T23:40:40.518Z,102016.92
2018-05-03T23:41:03.325Z,102020.00
2018-05-03T23:41:25.348Z,102013.38
2018-05-03T23:41:47.386Z,102012.45
2018-05-03T23:42:10.177Z,102012.45
2018-05-03T23:42:32.227Z,102016.76
2018-05-03T23:42:54.239Z,102009.84
2018-05-03T23:43:16.253Z,102014.69
2018-05-03T23:43:38.295Z,102010.22
2018-05-03T23:44:01.083Z,102011.45
2018-05-03T23:44:23.110Z,102015.38
2018-05-03T23:44:45.145Z,102012.21
2018-05-03T23:45:07.169Z,102015.75
2018-05-03T23:45:29.952Z,102010.52
2018-05-03T23:45:52.032Z,102019.22
2018-05-03T23:46:14.817Z,102015.67
2018-05-03T23:46:36.836Z,102015.56
2018-05-03T23:46:58.852Z,102016.41
2018-05-03T23:47:20.869Z,102019.40
2018-05-03T23:47:42.920Z,102018.17
2018-05-03T23:48:05.698Z,102012.02
2018-05-03T23:48:27.737Z,102018.55
2018-05-03T23:48:49.761Z,102014.55
2018-05-03T23:49:11.798Z,102015.48
2018-05-03T23:49:33.828Z,102018.94
2018-05-03T23:49:56.613Z,102015.02
2018-05-03T23:50:18.694Z,102020.78
2018-05-03T23:50:40.728Z,102019.48
2018-05-03T23:51:02.758Z,102019.40
2018-05-03T23:51:24.783Z,102016.70
2018-05-03T23:51:46.798Z,102022.78
2018-05-03T23:52:08.821Z,102020.16
2018-05-03T23:52:30.890Z,102020.55
2018-05-03T23:52:52.972Z,102017.47
2018-05-03T23:53:14.998Z,102014.39
2018-05-03T23:53:37.016Z,102019.16
2018-05-03T23:53:59.044Z,102013.16
2018-05-03T23:54:21.840Z,102016.23
2018-05-03T23:54:43.865Z,102011.85
2018-05-03T23:55:05.903Z,102017.39
2018-05-03T23:55:28.689Z,102013.47
2018-05-03T23:55:50.711Z,102016.92
2018-05-03T23:56:12.728Z,102014.77
2018-05-03T23:56:34.749Z,102017.69
2018-05-03T23:56:56.768Z,102019.38
2018-05-03T23:57:18.779Z,102022.45
2018-05-03T23:57:40.796Z,102019.76
2018-05-03T23:58:02.861Z,102022.84
2018-05-03T23:58:25.647Z,102028.91
2018-05-03T23:58:47.674Z,102026.77
2018-05-03T23:59:09.699Z,102027.61
2018-05-03T23:59:31.734Z,102026.22
2018-05-03T23:59:53.747Z,102027.52
